Time;durP1;ratioP1;P1;durP2;ratioP2;P2;SDS_P1;SDS_P2;PMS_P1;PMS_P2;Temp;Humidity;BMP_temperature;BMP_pressure;BME280_temperature;BME280_humidity;BME280_pressure;Samples;Min_cycle;Max_cycle;Signal;HPM_P1;HPM_P2
2021/12/13 00:02:29;;;;;;;4.50;2.70;;;2.10;99.90;;;;;;5091326;28;20483;-71
2021/12/13 00:05:07;;;;;;;5.67;2.80;;;2.10;99.90;;;;;;5091548;28;20467;-71
2021/12/13 00:07:37;;;;;;;5.20;3.50;;;2.10;99.90;;;;;;5091468;28;20578;-71
2021/12/13 00:10:11;;;;;;;4.10;2.80;;;2.00;99.90;;;;;;5092071;28;20540;-71
2021/12/13 00:12:42;;;;;;;4.77;3.00;;;2.00;99.90;;;;;;5091232;28;20506;-68
2021/12/13 00:15:16;;;;;;;3.93;2.50;;;2.10;99.90;;;;;;5091395;28;20954;-70
2021/12/13 00:17:46;;;;;;;3.83;2.53;;;2.20;99.90;;;;;;5091444;28;20479;-71
2021/12/13 00:20:20;;;;;;;4.77;3.17;;;2.10;99.90;;;;;;5090408;28;20455;-72
2021/12/13 00:22:51;;;;;;;4.70;2.97;;;2.20;99.90;;;;;;5089282;28;20487;-71
2021/12/13 00:25:26;;;;;;;4.83;3.07;;;2.20;99.90;;;;;;5091314;28;20499;-70
2021/12/13 00:27:58;;;;;;;4.40;2.57;;;2.30;99.90;;;;;;5091717;28;21096;-71
2021/12/13 00:30:38;;;;;;;5.20;2.73;;;2.30;99.90;;;;;;5091549;28;20504;-71
2021/12/13 00:33:13;;;;;;;4.47;2.60;;;2.10;99.90;;;;;;5091475;28;20452;-70
2021/12/13 00:35:47;;;;;;;4.80;3.00;;;2.30;99.90;;;;;;5091516;28;20805;-70
2021/12/13 00:38:15;;;;;;;5.00;2.97;;;2.20;99.90;;;;;;5091247;28;20474;-68
2021/12/13 00:40:47;;;;;;;3.97;2.37;;;2.30;99.90;;;;;;5090089;28;20463;-70
2021/12/13 00:43:20;;;;;;;4.80;3.20;;;2.30;99.90;;;;;;5089263;28;20475;-71
2021/12/13 00:45:53;;;;;;;5.23;2.60;;;2.40;99.90;;;;;;5089901;28;20450;-70
2021/12/13 00:48:21;;;;;;;5.07;3.03;;;2.40;99.90;;;;;;5074412;28;20470;-69
2021/12/13 00:50:59;;;;;;;3.97;2.47;;;2.30;99.90;;;;;;5089675;28;20450;-70
2021/12/13 00:53:28;;;;;;;5.00;2.33;;;2.20;99.90;;;;;;5089807;28;20455;-68
2021/12/13 00:55:55;;;;;;;3.60;2.20;;;2.20;99.90;;;;;;5090392;28;20525;-70
2021/12/13 00:58:25;;;;;;;3.80;2.10;;;2.30;99.90;;;;;;5089845;28;20476;-71
2021/12/13 01:00:56;;;;;;;4.30;2.70;;;2.40;99.90;;;;;;5089771;28;20796;-71
2021/12/13 01:03:29;;;;;;;4.70;2.40;;;2.40;99.90;;;;;;5089538;28;20480;-72
2021/12/13 01:06:36;;;;;;;4.20;2.47;;;2.20;99.90;;;;;;5090351;28;20966;-71
2021/12/13 01:09:54;;;;;;;5.30;2.73;;;2.20;99.90;;;;;;5090330;28;20481;-70
2021/12/13 01:12:23;;;;;;;4.80;2.53;;;2.40;99.90;;;;;;5026084;28;21264;-70
2021/12/13 01:14:56;;;;;;;4.90;2.67;;;2.40;99.90;;;;;;5027153;28;20466;-70
2021/12/13 01:17:41;;;;;;;4.83;2.40;;;2.50;99.90;;;;;;5066245;28;20479;-71
2021/12/13 01:20:16;;;;;;;3.50;2.03;;;2.50;99.90;;;;;;5090031;28;20933;-69
2021/12/13 01:22:50;;;;;;;4.00;2.33;;;2.30;99.90;;;;;;5089639;28;20949;-69
2021/12/13 01:25:43;;;;;;;5.00;3.27;;;2.40;99.90;;;;;;5090325;28;20455;-71
2021/12/13 01:28:20;;;;;;;4.17;2.50;;;2.30;99.90;;;;;;5089895;28;20470;-69
2021/12/13 01:30:52;;;;;;;4.50;2.10;;;2.30;99.90;;;;;;5090130;28;21041;-69
2021/12/13 01:33:21;;;;;;;4.40;2.40;;;2.50;99.90;;;;;;5089380;28;20455;-71
2021/12/13 01:36:00;;;;;;;5.53;2.77;;;2.50;99.90;;;;;;5090383;28;20498;-71
2021/12/13 01:38:34;;;;;;;3.93;2.37;;;2.50;99.90;;;;;;5089678;28;20455;-71
2021/12/13 01:41:08;;;;;;;4.80;2.57;;;2.60;99.90;;;;;;5089201;28;20536;-71
2021/12/13 01:43:39;;;;;;;4.97;3.07;;;2.50;99.90;;;;;;5089540;28;20522;-68
2021/12/13 01:46:06;;;;;;;5.30;2.83;;;2.50;99.90;;;;;;5089327;28;20543;-70
2021/12/13 01:48:36;;;;;;;4.00;2.57;;;2.40;99.90;;;;;;5089967;28;20460;-68
2021/12/13 01:51:07;;;;;;;3.90;2.47;;;2.50;99.90;;;;;;5090077;28;20454;-70
2021/12/13 01:53:39;;;;;;;4.50;2.43;;;2.40;99.90;;;;;;5089934;28;20908;-71
2021/12/13 01:56:23;;;;;;;4.50;2.87;;;2.40;99.90;;;;;;5089965;28;20863;-69
2021/12/13 01:58:52;;;;;;;5.13;3.20;;;2.20;99.90;;;;;;5089747;28;20488;-69
2021/12/13 02:01:22;;;;;;;4.63;3.10;;;2.10;99.90;;;;;;5089566;28;20455;-71
2021/12/13 02:03:57;;;;;;;4.47;2.90;;;2.30;99.90;;;;;;5088507;28;20487;-68
2021/12/13 02:06:34;;;;;;;4.53;2.80;;;2.40;99.90;;;;;;5089803;28;20467;-71
2021/12/13 02:09:06;;;;;;;5.53;2.93;;;2.40;99.90;;;;;;5089646;28;20478;-70
2021/12/13 02:11:35;;;;;;;4.57;2.80;;;2.40;99.90;;;;;;5089494;28;20956;-69
2021/12/13 02:14:10;;;;;;;4.43;2.53;;;2.40;99.90;;;;;;5088795;28;20521;-71
2021/12/13 02:16:57;;;;;;;5.40;3.20;;;2.30;99.90;;;;;;5086252;28;21033;-69
2021/12/13 02:19:32;;;;;;;4.27;2.80;;;2.40;99.90;;;;;;5089088;28;20626;-71
2021/12/13 02:22:14;;;;;;;4.87;3.17;;;2.40;99.90;;;;;;5088588;28;20497;-70
2021/12/13 02:24:43;;;;;;;5.00;2.93;;;2.40;99.90;;;;;;5088110;28;21300;-70
2021/12/13 02:27:12;;;;;;;5.03;2.40;;;2.30;99.90;;;;;;5089078;28;20529;-68
2021/12/13 02:29:39;;;;;;;4.93;2.43;;;2.30;99.90;;;;;;5089154;28;20505;-69
2021/12/13 02:32:10;;;;;;;6.07;3.20;;;2.30;99.90;;;;;;5089156;28;20467;-70
2021/12/13 02:34:38;;;;;;;5.53;3.40;;;2.30;99.90;;;;;;5089154;28;20456;-69
2021/12/13 02:37:07;;;;;;;5.00;2.90;;;2.20;99.90;;;;;;5089061;28;20466;-69
2021/12/13 02:39:38;;;;;;;4.63;3.00;;;2.20;99.90;;;;;;5088920;28;20940;-71
2021/12/13 02:42:10;;;;;;;5.10;3.23;;;2.10;99.90;;;;;;5088405;28;20453;-71
2021/12/13 02:44:40;;;;;;;4.23;2.73;;;2.00;99.90;;;;;;5089271;28;20466;-71
2021/12/13 02:47:11;;;;;;;4.73;2.60;;;2.00;99.90;;;;;;5089125;28;20464;-69
2021/12/13 02:49:40;;;;;;;4.40;2.60;;;2.00;99.90;;;;;;5088910;28;20497;-70
2021/12/13 02:52:10;;;;;;;4.63;2.97;;;1.90;99.90;;;;;;5088827;28;20514;-69
2021/12/13 02:54:41;;;;;;;4.17;2.70;;;1.90;99.90;;;;;;5088857;28;20457;-70
2021/12/13 02:57:12;;;;;;;4.87;3.37;;;2.00;99.90;;;;;;5089540;28;20476;-69
2021/12/13 02:59:44;;;;;;;5.93;3.50;;;2.10;99.90;;;;;;5088923;28;20452;-69
2021/12/13 03:02:15;;;;;;;5.37;3.00;;;2.20;99.90;;;;;;5088061;28;21117;-71
2021/12/13 03:04:42;;;;;;;5.50;3.47;;;2.10;99.90;;;;;;5088821;28;20456;-69
2021/12/13 03:07:12;;;;;;;5.53;3.40;;;2.00;99.90;;;;;;5088766;28;20605;-70
2021/12/13 03:09:42;;;;;;;4.00;2.57;;;2.10;99.90;;;;;;5088662;28;20819;-69
2021/12/13 03:12:14;;;;;;;6.57;3.43;;;2.10;99.90;;;;;;5088735;28;20962;-71
2021/12/13 03:14:45;;;;;;;5.73;4.10;;;2.10;99.90;;;;;;5089589;28;20501;-71
2021/12/13 03:17:20;;;;;;;4.83;2.77;;;2.00;99.90;;;;;;5091945;28;20483;-70
2021/12/13 03:20:01;;;;;;;6.30;3.30;;;2.10;99.90;;;;;;5092587;28;20465;-72
2021/12/13 03:22:51;;;;;;;4.80;2.87;;;1.90;99.90;;;;;;5092696;28;20487;-69
2021/12/13 03:25:28;;;;;;;6.40;3.80;;;1.90;99.90;;;;;;5092390;28;20459;-70
2021/12/13 03:28:23;;;;;;;5.37;3.40;;;1.90;99.90;;;;;;5093040;28;20466;-69
2021/12/13 03:30:56;;;;;;;5.57;4.10;;;2.00;99.90;;;;;;5093219;28;20864;-69
2021/12/13 03:33:33;;;;;;;6.17;3.63;;;1.90;99.90;;;;;;5092259;28;20525;-68
2021/12/13 03:36:05;;;;;;;4.53;3.30;;;2.10;99.90;;;;;;5093059;28;20454;-72
2021/12/13 03:38:36;;;;;;;5.47;3.33;;;1.90;99.90;;;;;;5092964;28;20452;-69
2021/12/13 03:41:09;;;;;;;6.50;4.27;;;1.90;99.90;;;;;;5092805;28;20442;-71
2021/12/13 03:43:43;;;;;;;5.60;4.13;;;2.00;99.90;;;;;;5091913;28;20560;-72
2021/12/13 03:46:13;;;;;;;6.10;3.60;;;1.90;99.90;;;;;;5092994;28;20865;-72
2021/12/13 03:48:43;;;;;;;6.07;4.00;;;1.80;99.90;;;;;;5111055;28;20520;-71
2021/12/13 03:51:14;;;;;;;5.50;3.50;;;1.40;99.90;;;;;;5092098;28;20455;-70
2021/12/13 03:53:45;;;;;;;5.80;3.73;;;1.40;99.90;;;;;;5092411;28;20521;-70
2021/12/13 03:56:15;;;;;;;5.00;3.70;;;1.40;99.90;;;;;;5092029;28;20499;-71
2021/12/13 03:58:49;;;;;;;5.60;3.93;;;1.50;99.90;;;;;;5092028;28;20467;-71
2021/12/13 04:01:19;;;;;;;5.53;3.63;;;1.50;99.90;;;;;;5091256;28;20451;-69
2021/12/13 04:03:47;;;;;;;4.50;3.37;;;1.60;99.90;;;;;;5091164;28;21260;-70
2021/12/13 04:06:16;;;;;;;4.93;3.00;;;1.50;99.90;;;;;;5091117;28;20500;-71
2021/12/13 04:08:45;;;;;;;5.77;3.60;;;1.50;99.90;;;;;;5092096;28;20463;-72
2021/12/13 04:11:13;;;;;;;4.67;3.33;;;1.60;99.90;;;;;;5091352;28;20444;-69
2021/12/13 04:13:44;;;;;;;6.07;3.90;;;1.50;99.90;;;;;;5091370;28;20477;-71
2021/12/13 04:16:29;;;;;;;5.97;3.87;;;1.50;99.90;;;;;;5091219;28;20448;-72
2021/12/13 04:19:09;;;;;;;6.40;4.37;;;1.50;99.90;;;;;;5091335;28;20450;-70
2021/12/13 04:21:47;;;;;;;5.37;3.87;;;1.60;99.90;;;;;;5087718;28;20463;-72
2021/12/13 04:24:16;;;;;;;5.43;3.70;;;1.50;99.90;;;;;;5090255;28;20539;-71
2021/12/13 04:26:47;;;;;;;6.83;4.40;;;1.60;99.90;;;;;;5090521;28;20475;-70
2021/12/13 04:29:20;;;;;;;6.00;4.17;;;1.50;99.90;;;;;;5091526;28;20445;-70
2021/12/13 04:31:49;;;;;;;7.40;4.10;;;1.60;99.90;;;;;;5091341;28;20478;-69
2021/12/13 04:34:17;;;;;;;8.33;4.47;;;1.50;99.90;;;;;;5091288;28;20454;-68
2021/12/13 04:36:47;;;;;;;7.80;5.00;;;1.60;99.90;;;;;;5091879;28;20526;-71
2021/12/13 04:39:19;;;;;;;6.57;4.13;;;1.60;99.90;;;;;;5091844;28;20457;-69
2021/12/13 04:41:50;;;;;;;6.30;4.40;;;1.60;99.90;;;;;;5091329;28;20461;-69
2021/12/13 04:44:22;;;;;;;7.80;4.27;;;1.60;99.90;;;;;;5091333;28;20489;-70
2021/12/13 04:46:53;;;;;;;6.67;4.50;;;1.70;99.90;;;;;;5090498;28;20466;-69
2021/12/13 04:49:23;;;;;;;6.53;4.00;;;1.70;99.90;;;;;;5090138;28;20935;-69
2021/12/13 04:51:56;;;;;;;7.00;4.47;;;1.70;99.90;;;;;;5088888;28;20513;-71
2021/12/13 04:54:26;;;;;;;7.47;5.07;;;1.60;99.90;;;;;;5088011;28;20455;-69
2021/12/13 04:56:55;;;;;;;4.90;3.73;;;1.50;99.90;;;;;;5087527;28;20477;-69
2021/12/13 04:59:22;;;;;;;6.40;4.00;;;1.50;99.90;;;;;;5088473;28;20922;-69
2021/12/13 05:01:53;;;;;;;6.63;5.20;;;1.50;99.90;;;;;;5088284;28;20886;-68
2021/12/13 05:04:23;;;;;;;5.30;4.10;;;1.50;99.90;;;;;;5088346;28;20492;-70
2021/12/13 05:06:51;;;;;;;6.43;4.53;;;1.70;99.90;;;;;;5088865;28;20472;-69
2021/12/13 05:09:21;;;;;;;12.87;4.90;;;1.70;99.90;;;;;;5089992;28;20794;-70
2021/12/13 05:11:51;;;;;;;7.60;5.07;;;1.70;99.90;;;;;;5090653;28;20452;-71
2021/12/13 05:14:30;;;;;;;6.47;4.93;;;1.60;99.90;;;;;;5089860;28;20920;-71
2021/12/13 05:17:06;;;;;;;7.43;4.70;;;1.60;99.90;;;;;;5089252;28;20462;-71
2021/12/13 05:19:39;;;;;;;6.93;4.33;;;1.60;99.90;;;;;;5090724;28;20512;-68
2021/12/13 05:22:08;;;;;;;7.47;5.07;;;1.70;99.90;;;;;;5090659;28;20856;-70
2021/12/13 05:24:44;;;;;;;8.00;4.80;;;1.70;99.90;;;;;;5090796;28;20510;-72
2021/12/13 05:27:14;;;;;;;7.20;5.17;;;1.50;99.90;;;;;;5088736;28;20478;-71
2021/12/13 05:29:44;;;;;;;7.40;5.07;;;1.60;99.90;;;;;;5070673;28;20997;-70
2021/12/13 05:32:19;;;;;;;8.53;5.37;;;1.70;99.90;;;;;;5070387;28;20467;-69
2021/12/13 05:34:48;;;;;;;6.20;5.00;;;1.80;99.90;;;;;;5088125;28;20449;-71
2021/12/13 05:37:16;;;;;;;6.90;5.37;;;1.90;99.90;;;;;;5090469;28;20471;-69
2021/12/13 05:39:57;;;;;;;7.10;5.10;;;2.00;99.90;;;;;;5090885;28;20458;-69
2021/12/13 05:42:36;;;;;;;8.00;5.17;;;2.00;99.90;;;;;;5090300;28;20444;-68
2021/12/13 05:45:05;;;;;;;6.40;5.10;;;1.90;99.90;;;;;;5090175;28;20576;-70
2021/12/13 05:47:34;;;;;;;7.80;5.00;;;1.90;99.90;;;;;;5090214;28;21295;-70
2021/12/13 05:50:01;;;;;;;8.47;6.57;;;1.90;99.90;;;;;;5095982;28;20451;-69
2021/12/13 05:52:33;;;;;;;6.97;5.40;;;1.80;99.90;;;;;;5096489;28;20447;-69
2021/12/13 05:55:07;;;;;;;7.43;5.07;;;2.00;99.90;;;;;;5089676;28;20817;-69
2021/12/13 05:57:36;;;;;;;9.90;5.50;;;2.00;99.90;;;;;;5089897;28;20482;-72
2021/12/13 06:00:11;;;;;;;11.30;6.37;;;2.10;99.90;;;;;;5089998;28;20925;-71
2021/12/13 06:03:01;;;;;;;5.90;4.97;;;2.10;99.90;;;;;;5090224;28;20938;-68
2021/12/13 06:05:32;;;;;;;7.80;6.00;;;2.20;99.90;;;;;;5089847;28;20535;-70
2021/12/13 06:08:02;;;;;;;7.53;5.50;;;2.20;99.90;;;;;;5089927;28;20483;-68
2021/12/13 06:10:40;;;;;;;9.57;5.90;;;2.20;99.90;;;;;;5090136;28;20470;-69
2021/12/13 06:13:14;;;;;;;8.37;5.33;;;2.20;99.90;;;;;;5087149;28;21314;-71
2021/12/13 06:15:43;;;;;;;7.17;5.03;;;2.20;99.90;;;;;;5086978;28;20450;-71
2021/12/13 06:18:24;;;;;;;7.70;5.87;;;2.20;99.90;;;;;;5087450;28;20471;-72
2021/12/13 06:20:59;;;;;;;8.50;6.03;;;2.30;99.90;;;;;;5087773;28;20813;-69
2021/12/13 06:23:29;;;;;;;7.03;5.37;;;2.40;99.90;;;;;;5087708;28;20564;-71
2021/12/13 06:25:59;;;;;;;7.87;5.80;;;2.40;99.90;;;;;;5088123;28;20851;-72
2021/12/13 06:28:29;;;;;;;7.10;5.20;;;2.20;99.90;;;;;;5088753;28;20472;-73
2021/12/13 06:31:00;;;;;;;6.90;5.67;;;2.30;99.90;;;;;;5089673;28;20480;-72
2021/12/13 06:33:28;;;;;;;7.70;5.63;;;2.30;99.90;;;;;;5089717;28;20916;-72
2021/12/13 06:35:58;;;;;;;8.60;5.70;;;2.30;99.90;;;;;;5089968;28;20847;-69
2021/12/13 06:38:49;;;;;;;7.80;5.63;;;2.20;99.90;;;;;;5090060;28;21283;-74
2021/12/13 06:41:32;;;;;;;10.80;7.13;;;2.30;99.90;;;;;;5090217;28;20456;-73
2021/12/13 06:44:02;;;;;;;7.27;6.30;;;2.30;99.90;;;;;;5089863;28;20497;-82
2021/12/13 06:46:36;;;;;;;6.80;5.27;;;2.30;99.90;;;;;;5089822;28;20471;-74
2021/12/13 06:49:12;;;;;;;7.23;5.27;;;2.20;99.90;;;;;;5089778;28;20458;-74
2021/12/13 06:51:43;;;;;;;8.57;5.97;;;2.10;99.90;;;;;;5090641;28;20454;-75
2021/12/13 06:54:12;;;;;;;8.50;5.67;;;2.10;99.90;;;;;;5093831;28;20444;-72
2021/12/13 06:56:44;;;;;;;6.87;5.20;;;2.00;99.90;;;;;;5094126;28;20478;-73
2021/12/13 06:59:17;;;;;;;7.80;5.33;;;2.00;99.90;;;;;;5093803;28;20947;-73
2021/12/13 07:01:55;;;;;;;13.77;5.43;;;2.00;99.90;;;;;;5093604;28;20511;-75
2021/12/13 07:04:24;;;;;;;7.27;5.80;;;2.00;99.90;;;;;;5093479;28;20798;-76
2021/12/13 07:06:51;;;;;;;8.90;5.53;;;1.90;99.90;;;;;;5093584;28;20532;-73
2021/12/13 07:09:24;;;;;;;7.20;5.30;;;1.80;99.90;;;;;;5093215;28;20508;-72
2021/12/13 07:11:55;;;;;;;7.80;6.07;;;1.90;99.90;;;;;;5093600;28;20459;-71
2021/12/13 07:14:36;;;;;;;8.60;6.60;;;1.90;99.90;;;;;;5093483;28;20444;-77
2021/12/13 07:17:12;;;;;;;10.43;6.03;;;1.90;99.90;;;;;;5093259;28;20561;-72
2021/12/13 07:19:42;;;;;;;6.60;4.80;;;1.90;99.90;;;;;;5093453;28;20531;-73
2021/12/13 07:22:11;;;;;;;8.20;5.90;;;4.10;99.90;;;;;;5081037;28;20512;-74
2021/12/13 07:24:42;;;;;;;8.50;6.70;;;1.90;99.90;;;;;;5076311;28;20490;-71
2021/12/13 07:27:12;;;;;;;8.83;6.10;;;1.90;99.90;;;;;;5078521;28;20606;-70
2021/12/13 07:29:45;;;;;;;10.40;7.10;;;2.00;99.90;;;;;;5079035;28;20514;-75
2021/12/13 07:32:18;;;;;;;7.33;5.43;;;2.20;99.90;;;;;;5077041;28;20467;-73
2021/12/13 07:35:07;;;;;;;7.10;5.00;;;2.30;99.90;;;;;;5073044;28;20470;-69
2021/12/13 07:37:47;;;;;;;8.40;5.80;;;2.10;99.90;;;;;;5072416;28;20899;-69
2021/12/13 07:40:28;;;;;;;7.97;5.90;;;1.90;99.90;;;;;;5072669;28;20455;-70
2021/12/13 07:43:17;;;;;;;10.27;5.27;;;1.90;99.90;;;;;;5072466;28;20498;-73
2021/12/13 07:45:53;;;;;;;8.13;5.87;;;2.10;99.90;;;;;;5066595;28;20499;-71
2021/12/13 07:48:24;;;;;;;7.90;5.40;;;2.10;99.90;;;;;;5072591;28;20480;-73
2021/12/13 07:51:02;;;;;;;8.63;6.17;;;2.10;99.90;;;;;;5071929;28;20445;-71
2021/12/13 07:53:38;;;;;;;11.53;5.80;;;2.10;99.90;;;;;;5072472;28;20451;-71
2021/12/13 07:56:06;;;;;;;8.40;6.03;;;2.10;99.90;;;;;;5072022;28;20534;-73
2021/12/13 07:58:37;;;;;;;10.07;6.83;;;2.20;99.90;;;;;;5072188;28;20513;-74
2021/12/13 08:01:19;;;;;;;8.50;6.10;;;2.20;99.90;;;;;;5071212;28;20467;-73
2021/12/13 08:03:49;;;;;;;8.17;5.70;;;2.20;99.90;;;;;;5071804;28;21312;-75
2021/12/13 08:06:18;;;;;;;11.80;6.00;;;2.10;99.90;;;;;;5071709;28;20947;-69
2021/12/13 08:08:53;;;;;;;8.17;5.80;;;2.20;99.90;;;;;;5072138;28;20497;-72
2021/12/13 08:11:35;;;;;;;8.40;5.73;;;2.20;99.90;;;;;;5071856;28;20968;-72
2021/12/13 08:14:02;;;;;;;8.20;5.90;;;2.30;99.90;;;;;;5071899;28;20549;-75
2021/12/13 08:16:32;;;;;;;8.10;6.23;;;2.40;99.90;;;;;;5091994;28;21006;-75
2021/12/13 08:19:16;;;;;;;8.30;5.33;;;2.50;99.90;;;;;;5092310;28;20461;-74
2021/12/13 08:21:49;;;;;;;8.60;6.07;;;2.30;99.90;;;;;;5083690;28;20456;-73
2021/12/13 08:24:35;;;;;;;10.23;5.43;;;2.40;99.90;;;;;;5071950;28;20503;-73
2021/12/13 08:27:08;;;;;;;6.80;5.00;;;2.40;99.90;;;;;;5071605;28;20477;-71
2021/12/13 08:29:39;;;;;;;7.43;5.10;;;2.60;99.90;;;;;;5071629;28;20952;-71
2021/12/13 08:32:11;;;;;;;7.70;4.67;;;2.60;99.90;;;;;;5071741;28;20502;-70
2021/12/13 08:34:44;;;;;;;6.93;4.47;;;2.40;99.90;;;;;;5071234;28;20460;-70
2021/12/13 08:37:26;;;;;;;7.43;5.50;;;2.30;99.90;;;;;;5071653;28;20506;-69
2021/12/13 08:39:59;;;;;;;6.93;5.17;;;2.20;99.90;;;;;;5071573;28;20782;-72
2021/12/13 08:42:29;;;;;;;7.20;5.07;;;2.20;99.90;;;;;;5071348;28;20825;-74
2021/12/13 08:45:03;;;;;;;7.23;5.30;;;2.30;99.90;;;;;;5071494;28;20595;-73
2021/12/13 08:47:37;;;;;;;7.90;6.50;;;2.20;99.90;;;;;;5071529;28;20475;-71
2021/12/13 08:50:10;;;;;;;7.47;6.03;;;2.20;99.90;;;;;;5070818;28;20463;-69
2021/12/13 08:52:41;;;;;;;7.70;6.53;;;2.30;99.90;;;;;;5071209;28;20778;-69
2021/12/13 08:55:22;;;;;;;9.20;6.83;;;2.40;99.90;;;;;;5071321;28;20463;-71
2021/12/13 08:57:53;;;;;;;11.10;7.80;;;2.40;99.90;;;;;;5071076;28;20476;-71
2021/12/13 09:00:45;;;;;;;10.83;6.80;;;2.40;99.90;;;;;;5071218;28;21005;-71
2021/12/13 09:03:22;;;;;;;9.60;6.10;;;2.50;99.90;;;;;;5070840;28;20811;-70
2021/12/13 09:05:59;;;;;;;9.13;6.90;;;2.70;99.90;;;;;;5071044;28;20566;-66
2021/12/13 09:08:32;;;;;;;12.13;7.53;;;2.70;99.90;;;;;;5071014;28;20456;-69
2021/12/13 09:11:03;;;;;;;10.57;6.97;;;2.80;99.90;;;;;;5070781;28;20501;-70
2021/12/13 09:13:43;;;;;;;9.63;6.57;;;2.80;99.90;;;;;;5070349;28;20491;-69
2021/12/13 09:16:12;;;;;;;9.00;6.67;;;2.70;99.90;;;;;;5070852;28;20452;-72
2021/12/13 09:18:39;;;;;;;12.50;7.03;;;2.70;99.90;;;;;;5071111;28;20458;-69
2021/12/13 09:21:08;;;;;;;10.27;6.37;;;2.70;99.90;;;;;;5070026;28;21271;-69
2021/12/13 09:23:44;;;;;;;8.97;7.20;;;2.70;99.90;;;;;;5070541;28;20503;-69
2021/12/13 09:26:15;;;;;;;10.80;7.80;;;2.90;99.90;;;;;;5070369;28;21065;-69
2021/12/13 09:28:46;;;;;;;9.20;6.97;;;2.80;99.90;;;;;;5070667;28;20524;-67
2021/12/13 09:31:17;;;;;;;12.43;7.27;;;2.90;99.90;;;;;;5070626;28;20485;-69
2021/12/13 09:33:47;;;;;;;8.80;6.50;;;3.00;99.90;;;;;;5070270;28;20471;-72
2021/12/13 09:36:18;;;;;;;9.83;6.00;;;3.00;99.90;;;;;;5070359;28;20503;-69
2021/12/13 09:38:53;;;;;;;11.37;6.77;;;3.00;99.90;;;;;;5070611;28;20907;-69
2021/12/13 09:41:33;;;;;;;12.47;6.47;;;2.80;99.90;;;;;;5070280;28;20935;-68
2021/12/13 09:44:14;;;;;;;10.50;6.70;;;2.80;99.90;;;;;;5070040;28;20941;-68
2021/12/13 09:46:45;;;;;;;8.50;6.90;;;2.70;99.90;;;;;;5070209;28;20472;-68
2021/12/13 09:49:15;;;;;;;8.73;6.73;;;2.70;99.90;;;;;;5070001;28;20447;-68
2021/12/13 09:51:47;;;;;;;9.90;6.93;;;2.80;99.90;;;;;;5070202;28;20939;-70
2021/12/13 09:54:19;;;;;;;14.77;7.53;;;2.90;99.90;;;;;;5070209;28;20452;-72
2021/12/13 09:56:49;;;;;;;13.67;7.43;;;2.90;99.90;;;;;;5069741;28;20480;-71
2021/12/13 09:59:23;;;;;;;7.70;6.33;;;2.90;99.90;;;;;;5069974;28;20567;-70
2021/12/13 10:01:51;;;;;;;10.50;6.47;;;3.00;99.90;;;;;;5069816;28;20952;-71
2021/12/13 10:04:24;;;;;;;8.90;6.37;;;3.00;99.90;;;;;;5069777;28;20456;-67
2021/12/13 10:06:55;;;;;;;10.53;7.77;;;3.00;99.90;;;;;;5070294;28;20561;-69
2021/12/13 10:09:27;;;;;;;9.90;7.23;;;3.00;99.90;;;;;;5069797;28;20515;-73
2021/12/13 10:11:58;;;;;;;8.70;7.20;;;3.10;99.90;;;;;;5068158;28;20976;-71
2021/12/13 10:14:28;;;;;;;9.57;7.83;;;3.00;99.90;;;;;;5070063;28;20459;-71
2021/12/13 10:16:57;;;;;;;10.13;7.47;;;3.00;99.90;;;;;;5070300;28;20471;-71
2021/12/13 10:19:28;;;;;;;9.13;7.20;;;3.00;99.90;;;;;;5072833;28;20560;-67
2021/12/13 10:21:55;;;;;;;9.13;6.87;;;3.00;99.90;;;;;;5071191;28;20956;-67
2021/12/13 10:24:27;;;;;;;10.47;7.83;;;3.00;99.90;;;;;;5072353;28;20494;-69
2021/12/13 10:26:56;;;;;;;8.40;7.50;;;2.80;99.90;;;;;;5070123;28;21131;-68
2021/12/13 10:29:25;;;;;;;11.13;7.00;;;2.80;99.90;;;;;;5069915;28;20452;-72
2021/12/13 10:31:57;;;;;;;9.07;6.93;;;2.80;99.90;;;;;;5070093;28;20445;-70
2021/12/13 10:34:28;;;;;;;9.23;7.10;;;2.80;99.90;;;;;;5069307;28;20537;-70
2021/12/13 10:37:00;;;;;;;8.97;7.13;;;2.80;99.90;;;;;;5069497;28;20499;-71
2021/12/13 10:39:33;;;;;;;8.33;6.40;;;2.90;99.90;;;;;;5069802;28;20449;-71
2021/12/13 10:42:04;;;;;;;7.27;6.33;;;2.90;99.90;;;;;;5069640;28;21062;-72
2021/12/13 10:44:31;;;;;;;8.63;7.00;;;2.80;99.90;;;;;;5069678;28;20447;-72
2021/12/13 10:47:02;;;;;;;9.63;7.13;;;2.80;99.90;;;;;;5069591;28;20900;-70
2021/12/13 10:49:31;;;;;;;8.33;6.37;;;2.90;99.90;;;;;;5069202;28;21006;-72
2021/12/13 10:52:02;;;;;;;9.00;6.60;;;2.90;99.90;;;;;;5069655;28;20844;-71
2021/12/13 10:54:34;;;;;;;10.60;6.40;;;3.00;99.90;;;;;;5069653;28;20512;-72
2021/12/13 10:57:21;;;;;;;8.27;6.50;;;3.10;99.90;;;;;;5069253;28;20866;-72
2021/12/13 10:59:49;;;;;;;9.33;6.00;;;3.20;99.90;;;;;;5068919;28;20451;-71
2021/12/13 11:02:20;;;;;;;10.40;6.40;;;3.30;99.90;;;;;;5069122;28;20960;-67
2021/12/13 11:04:50;;;;;;;8.40;6.47;;;3.00;99.90;;;;;;5069096;28;20448;-67
2021/12/13 11:07:18;;;;;;;8.30;6.20;;;3.00;99.90;;;;;;5069263;28;20526;-72
2021/12/13 11:09:48;;;;;;;8.37;6.23;;;3.10;99.90;;;;;;5069031;28;20458;-67
2021/12/13 11:12:20;;;;;;;10.30;7.53;;;3.10;99.90;;;;;;5068735;28;21047;-69
2021/12/13 11:14:50;;;;;;;7.67;6.43;;;3.10;99.90;;;;;;5069212;28;20993;-73
2021/12/13 11:17:24;;;;;;;9.07;7.10;;;3.10;99.90;;;;;;5069374;28;20483;-70
2021/12/13 11:19:54;;;;;;;9.03;7.07;;;3.10;99.90;;;;;;5068949;28;20477;-69
2021/12/13 11:22:25;;;;;;;9.50;6.73;;;3.20;99.90;;;;;;5068806;28;20457;-72
2021/12/13 11:24:58;;;;;;;9.20;6.87;;;3.20;99.90;;;;;;5068935;28;20741;-69
2021/12/13 11:27:30;;;;;;;8.73;7.27;;;3.00;99.90;;;;;;5069109;28;20788;-71
2021/12/13 11:29:59;;;;;;;11.80;8.30;;;3.20;99.90;;;;;;5069204;28;20976;-71
2021/12/13 11:33:03;;;;;;;10.27;8.57;;;3.30;99.90;;;;;;5068694;28;21004;-70
2021/12/13 11:36:23;;;;;;;10.60;8.70;;;3.50;99.90;;;;;;5069332;28;20461;-71
2021/12/13 11:39:35;;;;;;;9.97;8.40;;;3.60;99.90;;;;;;5073147;28;20569;-71
2021/12/13 11:42:43;;;;;;;10.37;7.23;;;3.80;99.90;;;;;;5072447;28;20502;-69
2021/12/13 11:45:42;;;;;;;9.97;7.80;;;3.60;99.90;;;;;;5072504;28;20547;-68
2021/12/13 11:48:41;;;;;;;9.20;7.00;;;3.90;99.90;;;;;;5070617;28;20630;-69
2021/12/13 11:51:38;;;;;;;11.53;8.33;;;3.90;99.90;;;;;;5072159;28;20464;-69
2021/12/13 11:54:38;;;;;;;11.23;8.97;;;3.90;99.90;;;;;;5072758;28;20801;-68
2021/12/13 11:57:43;;;;;;;11.07;7.80;;;3.90;99.90;;;;;;5069691;28;20508;-71
2021/12/13 12:00:30;;;;;;;8.37;7.00;;;3.90;99.90;;;;;;5072242;28;20927;-71
2021/12/13 12:03:40;;;;;;;10.13;6.70;;;3.80;99.90;;;;;;5072238;28;20895;-70
2021/12/13 12:06:40;;;;;;;11.37;7.43;;;3.70;99.90;;;;;;5072113;28;20553;-69
2021/12/13 12:09:31;;;;;;;11.53;7.13;;;3.50;99.90;;;;;;5048901;28;20449;-70
2021/12/13 12:12:20;;;;;;;9.47;6.57;;;3.60;99.90;;;;;;5070413;28;20453;-69
2021/12/13 12:14:59;;;;;;;10.73;6.70;;;3.60;99.90;;;;;;5072169;28;20455;-68
2021/12/13 12:17:26;;;;;;;11.57;7.33;;;3.50;99.90;;;;;;5071677;28;20492;-70
2021/12/13 12:19:54;;;;;;;11.47;8.03;;;3.50;99.90;;;;;;5071979;28;20465;-70
2021/12/13 12:22:22;;;;;;;10.27;7.00;;;3.50;99.90;;;;;;5071553;28;20471;-68
2021/12/13 12:24:51;;;;;;;11.57;8.40;;;3.50;99.90;;;;;;5071505;28;20488;-72
2021/12/13 12:27:22;;;;;;;11.73;8.73;;;3.40;99.90;;;;;;5071795;28;20536;-70
2021/12/13 12:29:53;;;;;;;10.97;7.93;;;3.50;99.90;;;;;;5071997;28;20455;-68
2021/12/13 12:32:24;;;;;;;15.20;9.90;;;3.50;99.90;;;;;;5071541;28;20447;-69
2021/12/13 12:34:54;;;;;;;13.50;9.60;;;3.50;99.90;;;;;;5071047;28;21027;-68
2021/12/13 12:38:03;;;;;;;17.30;9.57;;;3.60;99.90;;;;;;5071428;28;20503;-67
2021/12/13 12:40:35;;;;;;;14.17;10.13;;;3.40;99.90;;;;;;5071530;28;20539;-70
2021/12/13 12:43:06;;;;;;;13.60;9.50;;;3.50;99.90;;;;;;5071457;28;20927;-68
2021/12/13 12:45:41;;;;;;;13.07;9.20;;;3.50;99.90;;;;;;5071517;28;20834;-72
2021/12/13 12:48:26;;;;;;;13.37;9.47;;;3.50;99.90;;;;;;5070283;28;20822;-70
2021/12/13 12:51:01;;;;;;;11.23;8.30;;;3.30;99.90;;;;;;5071455;28;20957;-71
2021/12/13 12:53:38;;;;;;;12.70;8.10;;;3.10;99.90;;;;;;5071329;28;20481;-69
2021/12/13 12:56:11;;;;;;;13.90;10.70;;;3.10;99.90;;;;;;5070862;28;20782;-72
2021/12/13 12:58:45;;;;;;;11.33;7.80;;;3.10;99.90;;;;;;5071358;28;20499;-69
2021/12/13 13:01:19;;;;;;;12.73;8.70;;;3.10;99.90;;;;;;5070989;28;20939;-68
2021/12/13 13:03:46;;;;;;;11.53;9.20;;;3.20;99.90;;;;;;5071114;28;20943;-69
2021/12/13 13:06:15;;;;;;;12.57;9.27;;;3.10;99.90;;;;;;5071306;28;20987;-72
2021/12/13 13:08:48;;;;;;;13.53;9.83;;;3.00;99.90;;;;;;5070867;28;20452;-67
2021/12/13 13:11:30;;;;;;;14.20;9.60;;;3.10;99.90;;;;;;5071584;28;20518;-71
2021/12/13 13:14:09;;;;;;;18.30;10.60;;;3.20;99.90;;;;;;5070835;28;20505;-67
2021/12/13 13:16:44;;;;;;;16.20;10.10;;;3.20;99.90;;;;;;5070670;28;20489;-68
2021/12/13 13:19:23;;;;;;;14.50;9.00;;;3.10;99.90;;;;;;5070649;28;20458;-72
2021/12/13 13:21:51;;;;;;;15.70;12.30;;;3.20;99.90;;;;;;5070540;28;20459;-71
2021/12/13 13:24:19;;;;;;;14.30;10.33;;;3.30;99.90;;;;;;5070643;28;20458;-70
2021/12/13 13:26:47;;;;;;;12.30;8.40;;;3.40;99.90;;;;;;5070673;28;20492;-71
2021/12/13 13:29:17;;;;;;;11.67;8.60;;;3.30;99.90;;;;;;5070880;28;20508;-70
2021/12/13 13:31:50;;;;;;;11.47;8.43;;;3.30;99.90;;;;;;5070167;28;20505;-72
2021/12/13 13:34:20;;;;;;;11.73;7.90;;;3.20;99.90;;;;;;5069820;28;20504;-70